^^
Meteo Knjazevac Station Historical Data
Daily Summary for August 12, 2020 Units:  English    Metric   Both
Daily Weekly Monthly Yearly Custom
  High: Low: Average:
Temperature: 87.4 °F 62.1 °F 71.8 °F
Dew Point: 73.7 °F 61.8 °F 67 °F
Humidity: 99% 55% 87%
Wind Speed: 9mph 0mph 1.9mph
Wind Gust: 19mph - -
Wind- - SW
Pressure: 30.05 in 29.97 in -
Precipitation: 0.16 in    
Historical Graphs
 
 
Tabular Data for August 12, 2020
Time Temperature Dew Point Pressure Wind Wind Speed Wind Gust Humidity Rainfall Rate (Hourly) solar Conditions
00:00 67.6 °F 66.5 °F 30.00 in Calm   3 mph 96% 0.00 in 0 W/m2
00:10 67.6 °F 66.5 °F 30.01 in West 2 mph 3 mph 96% 0.00 in 0 W/m2
00:20 67.6 °F 66.5 °F 30.00 in Calm   3 mph 96% 0.00 in 0 W/m2
00:30 67.3 °F 66.1 °F 30.00 in WSW 1 mph 2 mph 96% 0.00 in 0 W/m2
00:40 66.9 °F 65.7 °F 30.01 in Calm   2 mph 96% 0.00 in 0 W/m2
00:50 66.7 °F 65.6 °F 30.01 in WSW 1 mph 3 mph 96% 0.00 in 0 W/m2
01:00 66.2 °F 65 °F 30.01 in WSW 1 mph 3 mph 96% 0.00 in 0 W/m2
01:10 66 °F 65.4 °F 30.01 in Calm   2 mph 98% 0.00 in 0 W/m2
01:20 65.8 °F 65.3 °F 30.01 in Calm   2 mph 98% 0.00 in 0 W/m2
01:30 65.7 °F 65.1 °F 30.01 in WSW 1 mph 2 mph 98% 0.00 in 0 W/m2
01:40 65.5 °F 64.9 °F 30.01 in WNW 1 mph 3 mph 98% 0.00 in 0 W/m2
01:50 65.5 °F 64.9 °F 30.00 in West 2 mph 3 mph 98% 0.00 in 0 W/m2
02:00 65.5 °F 65.2 °F 30.01 in NW 1 mph 3 mph 99% 0.00 in 0 W/m2
02:10 65.1 °F 64.5 °F 30.01 in Calm   2 mph 98% 0.00 in 0 W/m2
02:20 64.9 °F 64.4 °F 30.01 in WSW 1 mph 2 mph 98% 0.00 in 0 W/m2
02:30 64.6 °F 64 °F 30.01 in SW 1 mph 3 mph 98% 0.00 in 0 W/m2
02:40 64.2 °F 63.9 °F 30.01 in West 1 mph 3 mph 99% 0.00 in 0 W/m2
02:50 64.2 °F 63.9 °F 30.01 in Calm   2 mph 99% 0.00 in 0 W/m2
03:00 64.2 °F 63.9 °F 30.01 in West 1 mph 3 mph 99% 0.00 in 0 W/m2
03:10 64.2 °F 63.9 °F 30.01 in WNW 1 mph 3 mph 99% 0.00 in 0 W/m2
03:20 64.2 °F 63.9 °F 30.01 in NW 1 mph 2 mph 99% 0.00 in 0 W/m2
03:30 63.9 °F 63.6 °F 30.01 in Calm   2 mph 99% 0.00 in 0 W/m2
03:40 63.7 °F 63.4 °F 30.01 in West 1 mph 2 mph 99% 0.00 in 0 W/m2
03:50 63.7 °F 63.4 °F 30.01 in Calm   3 mph 99% 0.00 in 0 W/m2
04:00 63.5 °F 63.2 °F 30.01 in Calm   2 mph 99% 0.00 in 0 W/m2
04:10 63.3 °F 63 °F 30.01 in West 2 mph 3 mph 99% 0.00 in 0 W/m2
04:20 63.1 °F 62.9 °F 30.00 in Calm   2 mph 99% 0.00 in 0 W/m2
04:30 63.1 °F 62.9 °F 30.00 in WSW 1 mph 2 mph 99% 0.00 in 0 W/m2
04:40 63 °F 62.7 °F 30.00 in Calm   3 mph 99% 0.00 in 0 W/m2
04:50 62.8 °F 62.5 °F 30.00 in West 2 mph 3 mph 99% 0.00 in 0 W/m2
05:00 62.7 °F 62.5 °F 30.00 in West 1 mph 5 mph 99% 0.00 in 0 W/m2
05:10 62.4 °F 62.1 °F 30.01 in West 1 mph 3 mph 99% 0.00 in 0 W/m2
05:20 62.6 °F 62.3 °F 30.00 in NW 1 mph 4 mph 99% 0.00 in 0 W/m2
05:30 62.4 °F 62.1 °F 30.01 in West 1 mph 3 mph 99% 0.00 in 0 W/m2
05:40 62.4 °F 62.1 °F 30.01 in Calm   4 mph 99% 0.00 in 6 W/m2
05:50 62.2 °F 62 °F 30.01 in WSW 1 mph 2 mph 99% 0.00 in 13 W/m2
06:00 62.1 °F 61.8 °F 30.01 in WSW 1 mph 3 mph 99% 0.00 in 25 W/m2
06:10 62.1 °F 61.8 °F 30.01 in NW 1 mph 3 mph 99% 0.00 in 40 W/m2
06:20 62.1 °F 61.8 °F 30.01 in WSW 1 mph 2 mph 99% 0.00 in 58 W/m2
06:30 62.1 °F 61.8 °F 30.01 in West 1 mph 2 mph 99% 0.00 in 78 W/m2
06:40 62.2 °F 62 °F 30.01 in Calm   3 mph 99% 0.00 in 104 W/m2
06:50 62.6 °F 62.3 °F 30.02 in WNW 1 mph 4 mph 99% 0.00 in 120 W/m2
07:00 63 °F 62.7 °F 30.02 in Calm   4 mph 99% 0.00 in 148 W/m2
07:10 63.5 °F 63.2 °F 30.02 in West 1 mph 2 mph 99% 0.00 in 183 W/m2
07:20 63.9 °F 63.6 °F 30.02 in West 1 mph 3 mph 99% 0.00 in 211 W/m2
07:30 64.5 °F 64.2 °F 30.02 in West 2 mph 3 mph 99% 0.00 in 242 W/m2
07:40 65.1 °F 64.8 °F 30.02 in WNW 2 mph 3 mph 99% 0.00 in 274 W/m2
07:50 65.8 °F 65.6 °F 30.02 in WSW 1 mph 3 mph 99% 0.00 in 308 W/m2
08:00 66.4 °F 66.1 °F 30.03 in Calm   3 mph 99% 0.00 in 340 W/m2
08:10 66.9 °F 66.6 °F 30.03 in Calm   2 mph 99% 0.00 in 382 W/m2
08:20 67.8 °F 67.5 °F 30.03 in Calm   2 mph 99% 0.00 in 414 W/m2
08:30 68.6 °F 68.3 °F 30.03 in SW 1 mph 2 mph 99% 0.00 in 452 W/m2
08:40 69.4 °F 68.9 °F 30.03 in Calm   3 mph 98% 0.00 in 496 W/m2
08:50 70.3 °F 69.1 °F 30.03 in Calm   3 mph 96% 0.00 in 530 W/m2
09:00 71.8 °F 70.3 °F 30.02 in Calm   3 mph 95% 0.00 in 568 W/m2
09:10 74 °F 71.2 °F 30.02 in South 1 mph 4 mph 91% 0.00 in 602 W/m2
09:20 75.6 °F 72.1 °F 30.02 in Calm   5 mph 89% 0.00 in 629 W/m2
09:30 77.2 °F 72.4 °F 30.02 in South 2 mph 5 mph 85% 0.00 in 655 W/m2
09:40 78.5 °F 72.5 °F 30.02 in South 1 mph 4 mph 82% 0.00 in 680 W/m2
09:50 79.5 °F 73.2 °F 30.02 in SE 2 mph 5 mph 81% 0.00 in 704 W/m2
10:00 80.4 °F 73.7 °F 30.02 in Calm   3 mph 80% 0.00 in 726 W/m2
10:10 81.2 °F 73.7 °F 30.02 in WSW 1 mph 4 mph 78% 0.00 in 748 W/m2
10:20 81.9 °F 72.8 °F 30.02 in South 1 mph 3 mph 74% 0.00 in 768 W/m2
10:30 82.6 °F 73.4 °F 30.02 in WSW 2 mph 6 mph 74% 0.00 in 787 W/m2
10:40 82.9 °F 73.4 °F 30.01 in WSW 2 mph 5 mph 73% 0.00 in 805 W/m2
10:50 84 °F 73.6 °F 30.01 in SSE 2 mph 6 mph 71% 0.00 in 232 W/m2
11:00 84.6 °F 73.3 °F 30.01 in NNE 1 mph 7 mph 69% 0.00 in 837 W/m2
11:10 84.9 °F 73.2 °F 30.01 in NE 1 mph 6 mph 68% 0.00 in 409 W/m2
11:20 85.5 °F 72.3 °F 30.01 in NE 3 mph 8 mph 65% 0.00 in 347 W/m2
11:30 85.3 °F 72.6 °F 30.01 in ENE 1 mph 8 mph 66% 0.00 in 873 W/m2
11:40 85.4 °F 72.7 °F 30.01 in East 1 mph 7 mph 66% 0.00 in 471 W/m2
11:50 85.6 °F 73.4 °F 30.01 in NE 5 mph 8 mph 67% 0.00 in 798 W/m2
12:00 85.3 °F 71.7 °F 30.00 in NNE 3 mph 8 mph 64% 0.00 in 539 W/m2
12:10 85.6 °F 73 °F 30.00 in Calm   7 mph 66% 0.00 in 901 W/m2
12:20 86.1 °F 72.5 °F 30.00 in North 5 mph 8 mph 64% 0.00 in 904 W/m2
12:30 86.6 °F 73 °F 30.00 in NE 5 mph 10 mph 64% 0.00 in 854 W/m2
12:40 86.4 °F 72.7 °F 30.00 in North 1 mph 10 mph 64% 0.00 in 573 W/m2
12:50 85.9 °F 71.9 °F 30.00 in Calm   4 mph 63% 0.00 in 562 W/m2
13:00 86.2 °F 72.2 °F 29.99 in NW 2 mph 6 mph 63% 0.00 in 900 W/m2
13:10 86.2 °F 71.6 °F 29.99 in WNW 2 mph 8 mph 62% 0.00 in 895 W/m2
13:20 86.8 °F 72.2 °F 29.99 in NW 2 mph 8 mph 62% 0.00 in 889 W/m2
13:30 87.4 °F 71.3 °F 29.99 in NNW 2 mph 6 mph 59% 0.00 in 876 W/m2
13:40 87.1 °F 71 °F 29.98 in NW 3 mph 10 mph 59% 0.00 in 791 W/m2
13:50 87.1 °F 70 °F 29.98 in NW 6 mph 9 mph 57% 0.00 in 410 W/m2
14:00 87.1 °F 71 °F 29.98 in NW 6 mph 12 mph 59% 0.00 in 847 W/m2
14:10 86.5 °F 69.4 °F 29.99 in WNW 8 mph 15 mph 57% 0.00 in 762 W/m2
14:20 85.6 °F 69.2 °F 29.99 in NNW 8 mph 16 mph 58% 0.00 in 818 W/m2
14:30 86.2 °F 69.2 °F 29.98 in NNW 2 mph 14 mph 57% 0.00 in 377 W/m2
14:40 85.6 °F 67.6 °F 29.98 in NNW 3 mph 9 mph 55% 0.00 in 265 W/m2
14:50 84.9 °F 68.5 °F 29.98 in NNW 1 mph 7 mph 58% 0.00 in 203 W/m2
15:00 84.1 °F 69.2 °F 29.98 in NNW 3 mph 8 mph 61% 0.00 in 178 W/m2
15:10 83.3 °F 69.4 °F 29.98 in NW 3 mph 7 mph 63% 0.00 in 224 W/m2
15:20 82.9 °F 69.9 °F 29.98 in West 5 mph 7 mph 65% 0.00 in 232 W/m2
15:30 82.6 °F 70.9 °F 29.98 in WSW 2 mph 8 mph 68% 0.00 in 158 W/m2
15:40 82.1 °F 69.7 °F 29.97 in WSW 2 mph 7 mph 66% 0.00 in 176 W/m2
15:50 82 °F 69.6 °F 29.98 in WSW 7 mph 8 mph 66% 0.00 in 623 W/m2
16:00 82.4 °F 70.8 °F 29.98 in SW 8 mph 13 mph 68% 0.00 in 596 W/m2
16:10 81.7 °F 70.1 °F 29.98 in WSW 7 mph 14 mph 68% 0.00 in 147 W/m2
16:20 80.2 °F 68.6 °F 29.98 in SW 9 mph 19 mph 68% 0.00 in 95 W/m2
16:30 79.1 °F 67.2 °F 29.99 in SW 9 mph 14 mph 67% 0.00 in 47 W/m2
16:40 77.7 °F 66.3 °F 29.99 in SW 7 mph 15 mph 68% 0.00 in 30 W/m2
16:50 76.8 °F 65.9 °F 29.99 in SW 5 mph 12 mph 69% 0.00 in 29 W/m2
17:00 76.3 °F 65.4 °F 29.99 in SW 3 mph 9 mph 69% 0.00 in 17 W/m2
17:40 73.3 °F 66.9 °F 30.00 in SW 3.5 mph 12 mph 80.5% 0.01 in 23 W/m2
17:50 71.1 °F 66.3 °F 30.01 in WSW 1 mph 10 mph 85% 0.00 in 17 W/m2
18:00 70.7 °F 66.6 °F 30.01 in WSW 5 mph 8 mph 87% 0.01 in 17 W/m2
18:10 70 °F 66.6 °F 30.01 in SW 3 mph 11 mph 89% 0.02 in 13 W/m2
18:20 69.8 °F 66.7 °F 30.02 in NE 3 mph 5 mph 90% 0.01 in 15 W/m2
18:30 69.7 °F 67 °F 30.03 in NNE 5 mph 7 mph 91% 0.00 in 14 W/m2
18:40 69.3 °F 66.3 °F 30.04 in North 5 mph 8 mph 90% 0.01 in 12 W/m2
18:50 69.1 °F 67.3 °F 30.05 in NNE 3 mph 8 mph 94% 0.01 in 5 W/m2
19:00 68.7 °F 66.9 °F 30.05 in West 2 mph 6 mph 94% 0.01 in 6 W/m2
19:10 68.5 °F 67.1 °F 30.04 in SW 5 mph 10 mph 95% 0.00 in 9 W/m2
19:20 68 °F 66.8 °F 30.04 in SW 5 mph 11 mph 96% 0.01 in 5 W/m2
19:30 67.8 °F 66.6 °F 30.04 in SW 1 mph 7 mph 96% 0.00 in 2 W/m2
19:40 67.8 °F 66.6 °F 30.04 in SSE 1 mph 4 mph 96% 0.00 in 0 W/m2
19:50 67.8 °F 66.6 °F 30.04 in NE 2 mph 4 mph 96% 0.00 in 0 W/m2
20:00 67.8 °F 66.6 °F 30.04 in NNE 2 mph 5 mph 96% 0.00 in 0 W/m2
20:10 67.8 °F 66.6 °F 30.04 in NE 1 mph 5 mph 96% 0.00 in 0 W/m2
20:20 67.8 °F 66.9 °F 30.04 in SSE 2 mph 5 mph 97% 0.00 in 0 W/m2
20:30 67.8 °F 66.9 °F 30.04 in SSW 2 mph 4 mph 97% 0.00 in 0 W/m2
20:40 67.7 °F 66.5 °F 30.05 in SSW 2 mph 6 mph 96% 0.00 in 0 W/m2
20:50 67.6 °F 66.5 °F 30.05 in South 1 mph 5 mph 96% 0.00 in 0 W/m2
21:00 67.6 °F 66.8 °F 30.05 in WSW 1 mph 4 mph 97% 0.00 in 0 W/m2
21:10 67.3 °F 66.7 °F 30.05 in WSW 2 mph 4 mph 98% 0.00 in 0 W/m2
21:20 66.9 °F 66.3 °F 30.05 in West 1 mph 5 mph 98% 0.00 in 0 W/m2
21:30 66.5 °F 65.9 °F 30.05 in West 2 mph 6 mph 98% 0.00 in 0 W/m2
21:40 66.1 °F 65.5 °F 30.05 in West 1 mph 6 mph 98% 0.00 in 0 W/m2
21:50 65.8 °F 65.3 °F 30.05 in SW 1 mph 3 mph 98% 0.00 in 0 W/m2
22:00 65.7 °F 65.1 °F 30.05 in West 2 mph 3 mph 98% 0.00 in 0 W/m2
22:10 65.5 °F 65.2 °F 30.05 in West 1 mph 3 mph 99% 0.00 in 0 W/m2
22:20 65.1 °F 64.8 °F 30.05 in West 1 mph 4 mph 99% 0.00 in 0 W/m2
22:30 64.9 °F 64.7 °F 30.05 in West 2 mph 3 mph 99% 0.00 in 0 W/m2
22:40 64.8 °F 64.5 °F 30.05 in West 1 mph 3 mph 99% 0.00 in 0 W/m2
22:50 64.6 °F 64.3 °F 30.05 in West 1 mph 3 mph 99% 0.00 in 0 W/m2
23:00 64.4 °F 64.1 °F 30.05 in WNW 1 mph 3 mph 99% 0.00 in 0 W/m2
23:10 64.2 °F 63.9 °F 30.05 in Calm   2 mph 99% 0.00 in 0 W/m2
23:20 63.9 °F 63.6 °F 30.05 in WSW 2 mph 3 mph 99% 0.00 in 0 W/m2
23:30 63.5 °F 63.2 °F 30.05 in Calm   2 mph 99% 0.00 in 0 W/m2
23:40 63.4 °F 63.2 °F 30.05 in Calm   2 mph 99% 0.00 in 0 W/m2
Knjazevac, Serbia
Compliments of Weather Underground - 2 mb